Terminal Aerodrome Forecast
Issued by NWS Wilmington, OH

Home | Current Version | Previous Version | Text Only | Print | Product List | Glossary On
Versions: 1 2 3 4 5 6 7 8 9 10 11 12 13 14 15 16 17 18 19 20 21 22 23 24 25 26 27 28
000
FTUS41 KILN 251400 AAA
TAFCVG
TAF AMD
KCVG 251459Z 2515/2618 16007KT P6SM OVC060
     FM251800 13006KT 5SM BR VCSH SCT015 OVC040
      TEMPO 2521/2523 4SM -RA BR BKN015
     FM252300 06007KT 3SM -RA OVC012
      TEMPO 2604/2606 01011G21KT 1SM -SNRA OVC008
     FM260600 36015G22KT 3SM -SN OVC025
      TEMPO 2606/2609 OVC015
     FM261000 34012KT P6SM OVC025=

USA.gov is the U.S. government's official web portal to all federal, state and local government web resources and services.